BIKF/KEF METAR and TAF weather

Enter ICAO airport designator
Station Type Date Time Source
BIKF METAR 2024/02/26 17:30 UTC NOAA

BIKF 261730Z 20009KT 8000 -RA BKN017 OVC034 05/05 Q0974


Station Type Date Time Source
BIKF Decoded METAR 2024/02/26 17:30 UTC NOAA

Keflavikurflugvollur, Iceland (BIKF) 63-58N 022-36W 54M
Feb 26, 2024 - 12:30 PM EST / 2024.02.26 1730 UTC
Wind: from the SSW (200 degrees) at 10 MPH (9 KT):0
Visibility: 4 mile(s):0
Sky conditions: overcast
Weather: light rain
Temperature: 41 F (5 C)
Dew Point: 41 F (5 C)
Relative Humidity: 100%
Pressure (altimeter): 28.76 in. Hg (0974 hPa)
ob: BIKF 261730Z 20009KT 8000 -RA BKN017 OVC034 05/05 Q0974
cycle: 17

Station Type Date Time Source
BIKF TAF 2024/02/26 18:18 UTC NOAA